sensor_id;sensor_type;location;lat;lon;timestamp;P1;durP1;ratioP1;P2;durP2;ratioP2
1390;SDS011;690;51.454;7.194;2023-01-01T00:01:09;19.07;;;11.33;;
1390;SDS011;690;51.454;7.194;2023-01-01T00:03:37;21.23;;;13.27;;
1390;SDS011;690;51.454;7.194;2023-01-01T00:06:04;17.77;;;12.47;;
1390;SDS011;690;51.454;7.194;2023-01-01T00:08:32;16.17;;;10.83;;
1390;SDS011;690;51.454;7.194;2023-01-01T00:11:01;14.07;;;10.50;;
1390;SDS011;690;51.454;7.194;2023-01-01T00:13:28;15.40;;;11.07;;
1390;SDS011;690;51.454;7.194;2023-01-01T00:15:55;22.37;;;11.20;;
1390;SDS011;690;51.454;7.194;2023-01-01T00:18:22;15.70;;;11.77;;
1390;SDS011;690;51.454;7.194;2023-01-01T00:20:48;18.97;;;11.83;;
1390;SDS011;690;51.454;7.194;2023-01-01T00:23:15;18.37;;;11.33;;
1390;SDS011;690;51.454;7.194;2023-01-01T00:25:42;17.50;;;11.40;;
1390;SDS011;690;51.454;7.194;2023-01-01T00:28:10;13.27;;;11.27;;
1390;SDS011;690;51.454;7.194;2023-01-01T00:30:38;32.37;;;18.67;;
1390;SDS011;690;51.454;7.194;2023-01-01T00:33:05;20.03;;;11.53;;
1390;SDS011;690;51.454;7.194;2023-01-01T00:35:32;19.83;;;10.87;;
1390;SDS011;690;51.454;7.194;2023-01-01T00:38:00;18.67;;;11.70;;
1390;SDS011;690;51.454;7.194;2023-01-01T00:40:26;18.43;;;12.67;;
1390;SDS011;690;51.454;7.194;2023-01-01T00:42:53;23.87;;;15.03;;
1390;SDS011;690;51.454;7.194;2023-01-01T00:45:22;20.30;;;14.90;;
1390;SDS011;690;51.454;7.194;2023-01-01T00:47:49;22.93;;;16.03;;
1390;SDS011;690;51.454;7.194;2023-01-01T00:50:18;17.70;;;14.80;;
1390;SDS011;690;51.454;7.194;2023-01-01T00:52:45;24.40;;;16.90;;
1390;SDS011;690;51.454;7.194;2023-01-01T00:55:13;23.37;;;16.47;;
1390;SDS011;690;51.454;7.194;2023-01-01T00:57:40;24.63;;;16.97;;
1390;SDS011;690;51.454;7.194;2023-01-01T01:00:07;24.13;;;18.33;;
1390;SDS011;690;51.454;7.194;2023-01-01T01:02:36;22.07;;;17.97;;
1390;SDS011;690;51.454;7.194;2023-01-01T01:05:03;21.30;;;17.83;;
1390;SDS011;690;51.454;7.194;2023-01-01T01:07:32;24.23;;;17.57;;
1390;SDS011;690;51.454;7.194;2023-01-01T01:10:00;21.73;;;17.13;;
1390;SDS011;690;51.454;7.194;2023-01-01T01:12:27;20.63;;;15.80;;
1390;SDS011;690;51.454;7.194;2023-01-01T01:14:54;20.07;;;15.80;;
1390;SDS011;690;51.454;7.194;2023-01-01T01:17:21;20.73;;;14.97;;
1390;SDS011;690;51.454;7.194;2023-01-01T01:19:49;19.37;;;15.80;;
1390;SDS011;690;51.454;7.194;2023-01-01T01:22:16;16.60;;;12.83;;
1390;SDS011;690;51.454;7.194;2023-01-01T01:24:43;17.00;;;12.90;;
1390;SDS011;690;51.454;7.194;2023-01-01T01:27:10;14.33;;;12.77;;
1390;SDS011;690;51.454;7.194;2023-01-01T01:29:36;17.07;;;12.57;;
1390;SDS011;690;51.454;7.194;2023-01-01T01:32:04;19.73;;;11.83;;
1390;SDS011;690;51.454;7.194;2023-01-01T01:34:31;15.03;;;11.07;;
1390;SDS011;690;51.454;7.194;2023-01-01T01:36:59;14.03;;;9.60;;
1390;SDS011;690;51.454;7.194;2023-01-01T01:39:26;16.30;;;10.00;;
1390;SDS011;690;51.454;7.194;2023-01-01T01:41:53;11.90;;;10.57;;
1390;SDS011;690;51.454;7.194;2023-01-01T01:47:13;12.47;;;9.50;;
1390;SDS011;690;51.454;7.194;2023-01-01T01:49:42;12.13;;;9.23;;
1390;SDS011;690;51.454;7.194;2023-01-01T01:52:11;14.60;;;9.30;;
1390;SDS011;690;51.454;7.194;2023-01-01T01:54:39;10.83;;;8.87;;
1390;SDS011;690;51.454;7.194;2023-01-01T01:57:07;11.60;;;9.20;;
1390;SDS011;690;51.454;7.194;2023-01-01T01:59:39;11.37;;;8.10;;
1390;SDS011;690;51.454;7.194;2023-01-01T02:02:11;9.30;;;7.40;;
1390;SDS011;690;51.454;7.194;2023-01-01T02:04:43;11.97;;;7.30;;
1390;SDS011;690;51.454;7.194;2023-01-01T02:07:12;15.43;;;8.27;;
1390;SDS011;690;51.454;7.194;2023-01-01T02:09:40;6.80;;;6.10;;
1390;SDS011;690;51.454;7.194;2023-01-01T02:12:07;7.23;;;6.17;;
1390;SDS011;690;51.454;7.194;2023-01-01T02:14:34;9.67;;;5.90;;
1390;SDS011;690;51.454;7.194;2023-01-01T02:17:02;7.50;;;5.13;;
1390;SDS011;690;51.454;7.194;2023-01-01T02:19:36;13.33;;;5.10;;
1390;SDS011;690;51.454;7.194;2023-01-01T02:22:15;10.73;;;5.93;;
1390;SDS011;690;51.454;7.194;2023-01-01T02:24:53;7.30;;;4.20;;
1390;SDS011;690;51.454;7.194;2023-01-01T02:27:31;7.93;;;4.37;;
1390;SDS011;690;51.454;7.194;2023-01-01T02:30:12;9.17;;;4.20;;
1390;SDS011;690;51.454;7.194;2023-01-01T02:32:40;6.67;;;3.10;;
1390;SDS011;690;51.454;7.194;2023-01-01T02:35:11;5.93;;;3.00;;
1390;SDS011;690;51.454;7.194;2023-01-01T02:38:01;6.80;;;3.47;;
1390;SDS011;690;51.454;7.194;2023-01-01T02:40:30;6.00;;;2.97;;
1390;SDS011;690;51.454;7.194;2023-01-01T02:43:01;6.70;;;2.27;;
1390;SDS011;690;51.454;7.194;2023-01-01T02:45:31;4.73;;;2.60;;
1390;SDS011;690;51.454;7.194;2023-01-01T02:48:01;2.30;;;1.90;;
1390;SDS011;690;51.454;7.194;2023-01-01T02:50:29;5.23;;;2.50;;
1390;SDS011;690;51.454;7.194;2023-01-01T02:55:50;5.27;;;2.00;;
1390;SDS011;690;51.454;7.194;2023-01-01T02:58:25;3.13;;;1.90;;
1390;SDS011;690;51.454;7.194;2023-01-01T03:01:17;6.20;;;2.37;;
1390;SDS011;690;51.454;7.194;2023-01-01T03:03:50;5.60;;;2.00;;
1390;SDS011;690;51.454;7.194;2023-01-01T03:06:26;3.37;;;2.33;;
1390;SDS011;690;51.454;7.194;2023-01-01T03:09:02;5.27;;;2.27;;
1390;SDS011;690;51.454;7.194;2023-01-01T03:11:38;4.47;;;2.13;;
1390;SDS011;690;51.454;7.194;2023-01-01T03:14:13;2.00;;;1.70;;
1390;SDS011;690;51.454;7.194;2023-01-01T03:16:48;3.00;;;1.90;;
1390;SDS011;690;51.454;7.194;2023-01-01T03:19:18;6.30;;;2.20;;
1390;SDS011;690;51.454;7.194;2023-01-01T03:21:49;6.17;;;1.80;;
1390;SDS011;690;51.454;7.194;2023-01-01T03:24:20;4.37;;;2.00;;
1390;SDS011;690;51.454;7.194;2023-01-01T03:26:51;4.33;;;1.93;;
1390;SDS011;690;51.454;7.194;2023-01-01T03:29:21;2.97;;;1.73;;
1390;SDS011;690;51.454;7.194;2023-01-01T03:31:50;4.67;;;2.10;;
1390;SDS011;690;51.454;7.194;2023-01-01T03:34:22;5.50;;;1.80;;
1390;SDS011;690;51.454;7.194;2023-01-01T03:36:53;4.30;;;1.83;;
1390;SDS011;690;51.454;7.194;2023-01-01T03:39:23;5.70;;;1.70;;
1390;SDS011;690;51.454;7.194;2023-01-01T03:41:57;2.50;;;1.40;;
1390;SDS011;690;51.454;7.194;2023-01-01T03:44:34;2.83;;;1.50;;
1390;SDS011;690;51.454;7.194;2023-01-01T03:47:06;5.37;;;3.53;;
1390;SDS011;690;51.454;7.194;2023-01-01T03:49:33;2.40;;;1.93;;
1390;SDS011;690;51.454;7.194;2023-01-01T03:54:54;3.30;;;1.60;;
1390;SDS011;690;51.454;7.194;2023-01-01T03:57:31;3.30;;;1.50;;
1390;SDS011;690;51.454;7.194;2023-01-01T04:00:04;3.77;;;1.40;;
1390;SDS011;690;51.454;7.194;2023-01-01T04:02:35;6.23;;;2.30;;
1390;SDS011;690;51.454;7.194;2023-01-01T04:05:07;6.40;;;1.87;;
1390;SDS011;690;51.454;7.194;2023-01-01T04:07:35;3.30;;;1.43;;
1390;SDS011;690;51.454;7.194;2023-01-01T04:10:03;4.90;;;2.23;;
1390;SDS011;690;51.454;7.194;2023-01-01T04:12:42;4.60;;;1.60;;
1390;SDS011;690;51.454;7.194;2023-01-01T04:15:12;4.90;;;1.60;;
1390;SDS011;690;51.454;7.194;2023-01-01T04:17:41;4.30;;;2.00;;
1390;SDS011;690;51.454;7.194;2023-01-01T04:20:08;3.50;;;1.30;;
1390;SDS011;690;51.454;7.194;2023-01-01T04:22:35;3.67;;;1.80;;
1390;SDS011;690;51.454;7.194;2023-01-01T04:25:02;4.93;;;1.63;;
1390;SDS011;690;51.454;7.194;2023-01-01T04:27:30;4.53;;;2.23;;
1390;SDS011;690;51.454;7.194;2023-01-01T04:29:57;3.47;;;1.80;;
1390;SDS011;690;51.454;7.194;2023-01-01T04:32:23;8.83;;;2.30;;
1390;SDS011;690;51.454;7.194;2023-01-01T04:34:52;4.33;;;1.83;;
1390;SDS011;690;51.454;7.194;2023-01-01T04:37:18;5.27;;;2.00;;
1390;SDS011;690;51.454;7.194;2023-01-01T04:39:45;4.50;;;1.80;;
1390;SDS011;690;51.454;7.194;2023-01-01T04:42:12;3.83;;;1.37;;
1390;SDS011;690;51.454;7.194;2023-01-01T04:44:39;5.80;;;2.07;;
1390;SDS011;690;51.454;7.194;2023-01-01T04:47:06;3.17;;;1.50;;
1390;SDS011;690;51.454;7.194;2023-01-01T04:49:33;3.10;;;1.57;;
1390;SDS011;690;51.454;7.194;2023-01-01T04:52:01;3.63;;;1.43;;
1390;SDS011;690;51.454;7.194;2023-01-01T04:54:29;3.30;;;1.70;;
1390;SDS011;690;51.454;7.194;2023-01-01T04:56:55;2.80;;;1.63;;
1390;SDS011;690;51.454;7.194;2023-01-01T04:59:22;9.33;;;1.70;;
1390;SDS011;690;51.454;7.194;2023-01-01T05:01:49;5.23;;;1.70;;
1390;SDS011;690;51.454;7.194;2023-01-01T05:04:16;2.53;;;1.33;;
1390;SDS011;690;51.454;7.194;2023-01-01T05:06:43;5.23;;;1.50;;
1390;SDS011;690;51.454;7.194;2023-01-01T05:09:11;4.83;;;1.63;;
1390;SDS011;690;51.454;7.194;2023-01-01T05:11:38;6.50;;;1.80;;
1390;SDS011;690;51.454;7.194;2023-01-01T05:14:05;4.50;;;1.93;;
1390;SDS011;690;51.454;7.194;2023-01-01T05:16:33;5.63;;;1.93;;
1390;SDS011;690;51.454;7.194;2023-01-01T05:19:01;3.20;;;1.60;;
1390;SDS011;690;51.454;7.194;2023-01-01T05:21:29;1.63;;;1.50;;
1390;SDS011;690;51.454;7.194;2023-01-01T05:23:58;5.37;;;2.13;;
1390;SDS011;690;51.454;7.194;2023-01-01T05:26:27;2.30;;;1.50;;
1390;SDS011;690;51.454;7.194;2023-01-01T05:28:56;2.47;;;2.03;;
1390;SDS011;690;51.454;7.194;2023-01-01T05:31:24;6.70;;;1.70;;
1390;SDS011;690;51.454;7.194;2023-01-01T05:33:53;4.10;;;1.43;;
1390;SDS011;690;51.454;7.194;2023-01-01T05:36:20;6.70;;;2.60;;
1390;SDS011;690;51.454;7.194;2023-01-01T05:38:49;3.43;;;1.70;;
1390;SDS011;690;51.454;7.194;2023-01-01T05:41:17;2.13;;;1.60;;
1390;SDS011;690;51.454;7.194;2023-01-01T05:43:47;7.10;;;2.03;;
1390;SDS011;690;51.454;7.194;2023-01-01T05:46:15;7.07;;;2.20;;
1390;SDS011;690;51.454;7.194;2023-01-01T05:48:43;3.10;;;1.60;;
1390;SDS011;690;51.454;7.194;2023-01-01T05:51:11;2.23;;;1.37;;
1390;SDS011;690;51.454;7.194;2023-01-01T05:53:40;2.60;;;1.50;;
1390;SDS011;690;51.454;7.194;2023-01-01T05:56:08;3.07;;;2.40;;
1390;SDS011;690;51.454;7.194;2023-01-01T05:58:36;4.10;;;1.70;;
1390;SDS011;690;51.454;7.194;2023-01-01T06:01:08;3.07;;;1.60;;
1390;SDS011;690;51.454;7.194;2023-01-01T06:03:37;1.70;;;1.27;;
1390;SDS011;690;51.454;7.194;2023-01-01T06:06:05;4.03;;;1.60;;
1390;SDS011;690;51.454;7.194;2023-01-01T06:08:32;6.20;;;2.03;;
1390;SDS011;690;51.454;7.194;2023-01-01T06:11:00;3.10;;;1.30;;
1390;SDS011;690;51.454;7.194;2023-01-01T06:13:27;10.20;;;2.33;;
1390;SDS011;690;51.454;7.194;2023-01-01T06:15:54;2.33;;;1.40;;
1390;SDS011;690;51.454;7.194;2023-01-01T06:18:23;3.97;;;1.80;;
1390;SDS011;690;51.454;7.194;2023-01-01T06:20:50;3.40;;;1.60;;
1390;SDS011;690;51.454;7.194;2023-01-01T06:23:17;4.10;;;1.90;;
1390;SDS011;690;51.454;7.194;2023-01-01T06:25:44;5.13;;;2.20;;
1390;SDS011;690;51.454;7.194;2023-01-01T06:28:11;3.97;;;1.27;;
1390;SDS011;690;51.454;7.194;2023-01-01T06:30:38;2.40;;;1.73;;
1390;SDS011;690;51.454;7.194;2023-01-01T06:33:05;10.50;;;2.03;;
1390;SDS011;690;51.454;7.194;2023-01-01T06:35:33;4.20;;;1.50;;
1390;SDS011;690;51.454;7.194;2023-01-01T06:38:00;4.33;;;1.90;;
1390;SDS011;690;51.454;7.194;2023-01-01T06:40:27;8.70;;;2.50;;
1390;SDS011;690;51.454;7.194;2023-01-01T06:42:54;11.10;;;2.33;;
1390;SDS011;690;51.454;7.194;2023-01-01T06:45:21;7.37;;;1.60;;
1390;SDS011;690;51.454;7.194;2023-01-01T06:47:48;5.10;;;2.00;;
1390;SDS011;690;51.454;7.194;2023-01-01T06:50:14;6.00;;;1.70;;
1390;SDS011;690;51.454;7.194;2023-01-01T06:52:43;5.87;;;1.63;;
1390;SDS011;690;51.454;7.194;2023-01-01T06:55:11;4.30;;;2.07;;
1390;SDS011;690;51.454;7.194;2023-01-01T06:57:38;4.47;;;1.60;;
1390;SDS011;690;51.454;7.194;2023-01-01T07:00:06;2.70;;;1.57;;
1390;SDS011;690;51.454;7.194;2023-01-01T07:02:33;4.43;;;1.83;;
1390;SDS011;690;51.454;7.194;2023-01-01T07:05:00;4.93;;;1.90;;
1390;SDS011;690;51.454;7.194;2023-01-01T07:07:27;3.10;;;1.80;;
1390;SDS011;690;51.454;7.194;2023-01-01T07:09:55;3.90;;;1.83;;
1390;SDS011;690;51.454;7.194;2023-01-01T07:12:22;7.23;;;2.17;;
1390;SDS011;690;51.454;7.194;2023-01-01T07:14:48;3.80;;;2.00;;
1390;SDS011;690;51.454;7.194;2023-01-01T07:17:15;4.40;;;1.80;;
1390;SDS011;690;51.454;7.194;2023-01-01T07:19:42;2.40;;;1.73;;
1390;SDS011;690;51.454;7.194;2023-01-01T07:22:09;2.83;;;1.43;;
1390;SDS011;690;51.454;7.194;2023-01-01T07:24:36;3.67;;;1.53;;
1390;SDS011;690;51.454;7.194;2023-01-01T07:27:05;3.10;;;1.60;;
1390;SDS011;690;51.454;7.194;2023-01-01T07:29:32;5.13;;;1.67;;
1390;SDS011;690;51.454;7.194;2023-01-01T07:31:59;4.50;;;1.60;;
1390;SDS011;690;51.454;7.194;2023-01-01T07:34:26;3.00;;;1.60;;
1390;SDS011;690;51.454;7.194;2023-01-01T07:36:53;5.67;;;1.60;;
1390;SDS011;690;51.454;7.194;2023-01-01T07:39:20;3.30;;;2.10;;
1390;SDS011;690;51.454;7.194;2023-01-01T07:41:47;3.30;;;2.07;;
1390;SDS011;690;51.454;7.194;2023-01-01T07:44:15;5.37;;;2.03;;
1390;SDS011;690;51.454;7.194;2023-01-01T07:46:42;3.63;;;2.20;;
1390;SDS011;690;51.454;7.194;2023-01-01T07:49:09;3.57;;;2.03;;
1390;SDS011;690;51.454;7.194;2023-01-01T07:51:36;7.67;;;2.50;;
1390;SDS011;690;51.454;7.194;2023-01-01T07:54:03;7.00;;;2.40;;
1390;SDS011;690;51.454;7.194;2023-01-01T07:56:29;8.40;;;2.10;;
1390;SDS011;690;51.454;7.194;2023-01-01T07:58:56;2.50;;;1.47;;
1390;SDS011;690;51.454;7.194;2023-01-01T08:01:24;5.07;;;1.93;;
1390;SDS011;690;51.454;7.194;2023-01-01T08:03:51;7.90;;;2.47;;
1390;SDS011;690;51.454;7.194;2023-01-01T08:06:18;3.53;;;1.70;;
1390;SDS011;690;51.454;7.194;2023-01-01T08:08:46;5.80;;;1.87;;
1390;SDS011;690;51.454;7.194;2023-01-01T08:11:13;6.47;;;2.07;;
1390;SDS011;690;51.454;7.194;2023-01-01T08:13:40;3.77;;;2.13;;
1390;SDS011;690;51.454;7.194;2023-01-01T08:16:07;3.60;;;1.80;;
1390;SDS011;690;51.454;7.194;2023-01-01T08:18:35;3.97;;;1.87;;
1390;SDS011;690;51.454;7.194;2023-01-01T08:21:02;4.67;;;1.80;;
1390;SDS011;690;51.454;7.194;2023-01-01T08:23:29;4.00;;;2.17;;
1390;SDS011;690;51.454;7.194;2023-01-01T08:25:59;3.77;;;1.90;;
1390;SDS011;690;51.454;7.194;2023-01-01T08:28:26;4.93;;;2.13;;
1390;SDS011;690;51.454;7.194;2023-01-01T08:30:54;6.57;;;2.00;;
1390;SDS011;690;51.454;7.194;2023-01-01T08:33:21;3.80;;;1.77;;
1390;SDS011;690;51.454;7.194;2023-01-01T08:35:50;6.00;;;2.47;;
1390;SDS011;690;51.454;7.194;2023-01-01T08:38:17;4.43;;;2.00;;
1390;SDS011;690;51.454;7.194;2023-01-01T08:40:44;5.20;;;2.90;;
1390;SDS011;690;51.454;7.194;2023-01-01T08:43:11;3.00;;;2.00;;
1390;SDS011;690;51.454;7.194;2023-01-01T08:45:38;8.03;;;2.00;;
1390;SDS011;690;51.454;7.194;2023-01-01T08:48:05;2.40;;;1.70;;
1390;SDS011;690;51.454;7.194;2023-01-01T08:50:32;6.07;;;2.10;;
1390;SDS011;690;51.454;7.194;2023-01-01T08:53:00;3.57;;;1.83;;
1390;SDS011;690;51.454;7.194;2023-01-01T08:55:27;3.80;;;2.03;;
1390;SDS011;690;51.454;7.194;2023-01-01T08:57:55;8.13;;;2.00;;
1390;SDS011;690;51.454;7.194;2023-01-01T09:00:22;6.13;;;2.00;;
1390;SDS011;690;51.454;7.194;2023-01-01T09:02:48;9.70;;;1.90;;
1390;SDS011;690;51.454;7.194;2023-01-01T09:05:15;3.97;;;1.67;;
1390;SDS011;690;51.454;7.194;2023-01-01T09:07:42;6.17;;;2.20;;
1390;SDS011;690;51.454;7.194;2023-01-01T09:10:11;5.27;;;2.30;;
1390;SDS011;690;51.454;7.194;2023-01-01T09:12:37;8.70;;;2.83;;
1390;SDS011;690;51.454;7.194;2023-01-01T09:15:05;4.80;;;2.63;;
1390;SDS011;690;51.454;7.194;2023-01-01T09:17:37;4.80;;;1.73;;
1390;SDS011;690;51.454;7.194;2023-01-01T09:20:04;3.30;;;1.73;;
1390;SDS011;690;51.454;7.194;2023-01-01T09:22:32;6.57;;;2.10;;
1390;SDS011;690;51.454;7.194;2023-01-01T09:24:59;8.07;;;1.77;;
1390;SDS011;690;51.454;7.194;2023-01-01T09:27:27;9.77;;;2.23;;
1390;SDS011;690;51.454;7.194;2023-01-01T09:29:54;6.87;;;2.10;;
1390;SDS011;690;51.454;7.194;2023-01-01T09:32:21;9.73;;;3.40;;
1390;SDS011;690;51.454;7.194;2023-01-01T09:34:48;7.33;;;2.27;;
1390;SDS011;690;51.454;7.194;2023-01-01T09:37:15;4.00;;;2.17;;
1390;SDS011;690;51.454;7.194;2023-01-01T09:39:42;8.00;;;2.00;;
1390;SDS011;690;51.454;7.194;2023-01-01T09:42:15;6.00;;;1.77;;
1390;SDS011;690;51.454;7.194;2023-01-01T09:45:03;5.73;;;2.27;;
1390;SDS011;690;51.454;7.194;2023-01-01T09:47:41;4.07;;;1.77;;
1390;SDS011;690;51.454;7.194;2023-01-01T09:50:11;5.60;;;2.10;;
1390;SDS011;690;51.454;7.194;2023-01-01T09:52:43;4.57;;;2.00;;
1390;SDS011;690;51.454;7.194;2023-01-01T09:55:17;4.67;;;1.97;;
1390;SDS011;690;51.454;7.194;2023-01-01T09:57:49;3.23;;;2.00;;
1390;SDS011;690;51.454;7.194;2023-01-01T10:00:18;3.70;;;1.80;;
1390;SDS011;690;51.454;7.194;2023-01-01T10:02:54;6.00;;;2.20;;
1390;SDS011;690;51.454;7.194;2023-01-01T10:05:35;6.23;;;2.30;;
1390;SDS011;690;51.454;7.194;2023-01-01T10:08:09;4.17;;;1.70;;
1390;SDS011;690;51.454;7.194;2023-01-01T10:10:44;3.70;;;2.40;;
1390;SDS011;690;51.454;7.194;2023-01-01T10:13:19;4.10;;;1.70;;
1390;SDS011;690;51.454;7.194;2023-01-01T10:15:53;9.20;;;1.97;;
1390;SDS011;690;51.454;7.194;2023-01-01T10:18:24;4.27;;;2.63;;
1390;SDS011;690;51.454;7.194;2023-01-01T10:20:58;6.07;;;2.43;;
1390;SDS011;690;51.454;7.194;2023-01-01T10:23:30;4.77;;;2.20;;
1390;SDS011;690;51.454;7.194;2023-01-01T10:26:07;5.27;;;2.20;;
1390;SDS011;690;51.454;7.194;2023-01-01T10:28:39;5.13;;;2.87;;
1390;SDS011;690;51.454;7.194;2023-01-01T10:31:14;6.17;;;2.30;;
1390;SDS011;690;51.454;7.194;2023-01-01T10:33:43;9.87;;;2.40;;
1390;SDS011;690;51.454;7.194;2023-01-01T10:36:11;4.87;;;2.27;;
1390;SDS011;690;51.454;7.194;2023-01-01T10:38:41;6.10;;;2.30;;
1390;SDS011;690;51.454;7.194;2023-01-01T10:41:08;5.03;;;2.27;;
1390;SDS011;690;51.454;7.194;2023-01-01T10:43:36;6.73;;;2.13;;
1390;SDS011;690;51.454;7.194;2023-01-01T10:46:04;7.70;;;2.30;;
1390;SDS011;690;51.454;7.194;2023-01-01T10:48:32;4.87;;;2.23;;
1390;SDS011;690;51.454;7.194;2023-01-01T10:51:00;3.73;;;2.20;;
1390;SDS011;690;51.454;7.194;2023-01-01T10:53:29;3.73;;;2.07;;
1390;SDS011;690;51.454;7.194;2023-01-01T10:55:58;5.30;;;2.20;;
1390;SDS011;690;51.454;7.194;2023-01-01T10:58:35;5.97;;;2.00;;
1390;SDS011;690;51.454;7.194;2023-01-01T11:01:05;5.00;;;2.40;;
1390;SDS011;690;51.454;7.194;2023-01-01T11:03:34;6.60;;;2.20;;
1390;SDS011;690;51.454;7.194;2023-01-01T11:06:03;5.20;;;1.60;;
1390;SDS011;690;51.454;7.194;2023-01-01T11:08:32;6.60;;;2.00;;
1390;SDS011;690;51.454;7.194;2023-01-01T11:11:01;5.23;;;1.93;;
1390;SDS011;690;51.454;7.194;2023-01-01T11:13:28;4.00;;;2.10;;
1390;SDS011;690;51.454;7.194;2023-01-01T11:15:57;6.57;;;2.50;;
1390;SDS011;690;51.454;7.194;2023-01-01T11:18:25;4.80;;;1.80;;
1390;SDS011;690;51.454;7.194;2023-01-01T11:21:01;2.13;;;1.57;;
1390;SDS011;690;51.454;7.194;2023-01-01T11:23:30;8.63;;;2.40;;
1390;SDS011;690;51.454;7.194;2023-01-01T11:26:04;6.23;;;2.10;;
1390;SDS011;690;51.454;7.194;2023-01-01T11:28:32;6.00;;;2.23;;
1390;SDS011;690;51.454;7.194;2023-01-01T11:31:09;6.37;;;2.33;;
1390;SDS011;690;51.454;7.194;2023-01-01T11:33:42;6.40;;;1.90;;
1390;SDS011;690;51.454;7.194;2023-01-01T11:36:12;10.53;;;2.40;;
1390;SDS011;690;51.454;7.194;2023-01-01T11:38:47;6.43;;;2.53;;
1390;SDS011;690;51.454;7.194;2023-01-01T11:41:16;5.20;;;2.00;;
1390;SDS011;690;51.454;7.194;2023-01-01T11:43:43;6.30;;;2.53;;
1390;SDS011;690;51.454;7.194;2023-01-01T11:46:14;11.37;;;3.03;;
1390;SDS011;690;51.454;7.194;2023-01-01T11:48:44;5.70;;;2.87;;
1390;SDS011;690;51.454;7.194;2023-01-01T11:51:27;4.07;;;2.00;;
1390;SDS011;690;51.454;7.194;2023-01-01T11:54:07;6.10;;;2.00;;
1390;SDS011;690;51.454;7.194;2023-01-01T11:56:36;3.83;;;2.00;;
1390;SDS011;690;51.454;7.194;2023-01-01T11:59:04;6.77;;;2.60;;
1390;SDS011;690;51.454;7.194;2023-01-01T12:01:40;9.40;;;2.93;;
1390;SDS011;690;51.454;7.194;2023-01-01T12:04:12;6.37;;;1.83;;
1390;SDS011;690;51.454;7.194;2023-01-01T12:06:46;7.60;;;2.40;;
1390;SDS011;690;51.454;7.194;2023-01-01T12:09:20;11.67;;;2.97;;
1390;SDS011;690;51.454;7.194;2023-01-01T12:11:50;6.20;;;2.40;;
1390;SDS011;690;51.454;7.194;2023-01-01T12:14:21;4.47;;;2.00;;
1390;SDS011;690;51.454;7.194;2023-01-01T12:16:55;7.90;;;2.47;;
1390;SDS011;690;51.454;7.194;2023-01-01T12:19:26;5.73;;;2.10;;
1390;SDS011;690;51.454;7.194;2023-01-01T12:21:58;5.90;;;2.83;;
1390;SDS011;690;51.454;7.194;2023-01-01T12:24:27;6.23;;;2.13;;
1390;SDS011;690;51.454;7.194;2023-01-01T12:27:02;4.50;;;1.80;;
1390;SDS011;690;51.454;7.194;2023-01-01T12:32:45;8.33;;;2.27;;
1390;SDS011;690;51.454;7.194;2023-01-01T12:35:36;5.90;;;2.87;;
1390;SDS011;690;51.454;7.194;2023-01-01T12:38:18;5.10;;;2.07;;
1390;SDS011;690;51.454;7.194;2023-01-01T12:40:57;5.73;;;2.00;;
1390;SDS011;690;51.454;7.194;2023-01-01T12:43:34;7.10;;;2.47;;
1390;SDS011;690;51.454;7.194;2023-01-01T12:49:19;4.17;;;2.40;;
1390;SDS011;690;51.454;7.194;2023-01-01T12:51:57;6.60;;;2.40;;
1390;SDS011;690;51.454;7.194;2023-01-01T12:54:37;5.47;;;2.27;;
1390;SDS011;690;51.454;7.194;2023-01-01T12:57:20;6.47;;;2.30;;
1390;SDS011;690;51.454;7.194;2023-01-01T12:59:54;7.60;;;2.03;;
1390;SDS011;690;51.454;7.194;2023-01-01T13:02:24;7.33;;;2.67;;
1390;SDS011;690;51.454;7.194;2023-01-01T13:04:53;7.53;;;2.40;;
1390;SDS011;690;51.454;7.194;2023-01-01T13:07:27;8.77;;;2.60;;
1390;SDS011;690;51.454;7.194;2023-01-01T13:09:58;9.07;;;2.23;;
1390;SDS011;690;51.454;7.194;2023-01-01T13:12:31;5.00;;;2.03;;
1390;SDS011;690;51.454;7.194;2023-01-01T13:17:59;5.33;;;2.00;;
1390;SDS011;690;51.454;7.194;2023-01-01T13:20:28;4.03;;;2.07;;
1390;SDS011;690;51.454;7.194;2023-01-01T13:22:55;5.30;;;1.87;;
1390;SDS011;690;51.454;7.194;2023-01-01T13:25:23;13.20;;;2.07;;
1390;SDS011;690;51.454;7.194;2023-01-01T13:30:45;8.17;;;2.37;;
1390;SDS011;690;51.454;7.194;2023-01-01T13:33:16;5.13;;;2.37;;
1390;SDS011;690;51.454;7.194;2023-01-01T13:38:49;4.63;;;2.10;;
1390;SDS011;690;51.454;7.194;2023-01-01T13:41:38;6.67;;;2.37;;
1390;SDS011;690;51.454;7.194;2023-01-01T13:44:15;7.93;;;2.40;;
1390;SDS011;690;51.454;7.194;2023-01-01T13:46:48;8.90;;;2.83;;
1390;SDS011;690;51.454;7.194;2023-01-01T13:49:36;6.73;;;3.17;;
1390;SDS011;690;51.454;7.194;2023-01-01T13:52:19;4.07;;;2.60;;
1390;SDS011;690;51.454;7.194;2023-01-01T13:55:18;4.70;;;2.33;;
1390;SDS011;690;51.454;7.194;2023-01-01T14:01:21;9.30;;;3.20;;
1390;SDS011;690;51.454;7.194;2023-01-01T14:04:01;7.87;;;2.50;;
1390;SDS011;690;51.454;7.194;2023-01-01T14:06:33;8.30;;;2.47;;
1390;SDS011;690;51.454;7.194;2023-01-01T14:09:04;9.43;;;2.43;;
1390;SDS011;690;51.454;7.194;2023-01-01T14:11:32;10.40;;;3.07;;
1390;SDS011;690;51.454;7.194;2023-01-01T14:13:59;5.10;;;2.53;;
1390;SDS011;690;51.454;7.194;2023-01-01T14:16:27;6.60;;;2.30;;
1390;SDS011;690;51.454;7.194;2023-01-01T14:18:55;7.67;;;2.97;;
1390;SDS011;690;51.454;7.194;2023-01-01T14:21:24;6.20;;;2.00;;
1390;SDS011;690;51.454;7.194;2023-01-01T14:23:56;5.40;;;2.20;;
1390;SDS011;690;51.454;7.194;2023-01-01T14:26:28;5.27;;;2.40;;
1390;SDS011;690;51.454;7.194;2023-01-01T14:28:57;3.93;;;2.00;;
1390;SDS011;690;51.454;7.194;2023-01-01T14:31:28;5.17;;;2.53;;
1390;SDS011;690;51.454;7.194;2023-01-01T14:33:56;5.53;;;2.43;;
1390;SDS011;690;51.454;7.194;2023-01-01T14:36:24;6.50;;;3.00;;
1390;SDS011;690;51.454;7.194;2023-01-01T14:38:53;6.70;;;2.40;;
1390;SDS011;690;51.454;7.194;2023-01-01T14:41:22;9.33;;;2.60;;
1390;SDS011;690;51.454;7.194;2023-01-01T14:43:52;6.80;;;2.67;;
1390;SDS011;690;51.454;7.194;2023-01-01T14:46:22;6.50;;;2.90;;
1390;SDS011;690;51.454;7.194;2023-01-01T14:48:53;7.50;;;2.70;;
1390;SDS011;690;51.454;7.194;2023-01-01T14:51:24;10.83;;;2.53;;
1390;SDS011;690;51.454;7.194;2023-01-01T14:53:53;5.47;;;2.03;;
1390;SDS011;690;51.454;7.194;2023-01-01T14:56:23;4.43;;;2.00;;
1390;SDS011;690;51.454;7.194;2023-01-01T14:58:52;4.43;;;2.60;;
1390;SDS011;690;51.454;7.194;2023-01-01T15:01:21;3.77;;;2.47;;
1390;SDS011;690;51.454;7.194;2023-01-01T15:03:58;6.47;;;2.33;;
1390;SDS011;690;51.454;7.194;2023-01-01T15:06:26;7.50;;;2.27;;
1390;SDS011;690;51.454;7.194;2023-01-01T15:08:54;6.73;;;2.47;;
1390;SDS011;690;51.454;7.194;2023-01-01T15:11:21;6.80;;;2.03;;
1390;SDS011;690;51.454;7.194;2023-01-01T15:13:52;3.97;;;2.17;;
1390;SDS011;690;51.454;7.194;2023-01-01T15:16:21;5.50;;;2.37;;
1390;SDS011;690;51.454;7.194;2023-01-01T15:18:48;5.27;;;2.13;;
1390;SDS011;690;51.454;7.194;2023-01-01T15:21:19;5.40;;;2.40;;
1390;SDS011;690;51.454;7.194;2023-01-01T15:23:58;6.90;;;2.50;;
1390;SDS011;690;51.454;7.194;2023-01-01T15:26:28;12.47;;;2.90;;
1390;SDS011;690;51.454;7.194;2023-01-01T15:28:57;5.37;;;2.50;;
1390;SDS011;690;51.454;7.194;2023-01-01T15:31:32;6.20;;;2.33;;
1390;SDS011;690;51.454;7.194;2023-01-01T15:34:01;6.90;;;2.20;;
1390;SDS011;690;51.454;7.194;2023-01-01T15:36:30;4.60;;;2.00;;
1390;SDS011;690;51.454;7.194;2023-01-01T15:38:57;10.30;;;3.70;;
1390;SDS011;690;51.454;7.194;2023-01-01T15:41:32;6.93;;;2.90;;
1390;SDS011;690;51.454;7.194;2023-01-01T15:44:07;7.37;;;3.73;;
1390;SDS011;690;51.454;7.194;2023-01-01T15:46:43;8.70;;;2.80;;
1390;SDS011;690;51.454;7.194;2023-01-01T15:49:19;8.27;;;2.80;;
1390;SDS011;690;51.454;7.194;2023-01-01T15:51:50;5.67;;;1.90;;
1390;SDS011;690;51.454;7.194;2023-01-01T15:54:18;5.80;;;2.73;;
1390;SDS011;690;51.454;7.194;2023-01-01T15:56:45;4.37;;;2.27;;
1390;SDS011;690;51.454;7.194;2023-01-01T15:59:15;3.40;;;2.37;;
1390;SDS011;690;51.454;7.194;2023-01-01T16:01:47;7.70;;;3.47;;
1390;SDS011;690;51.454;7.194;2023-01-01T16:04:15;4.77;;;2.50;;
1390;SDS011;690;51.454;7.194;2023-01-01T16:06:45;5.83;;;2.70;;
1390;SDS011;690;51.454;7.194;2023-01-01T16:09:15;6.17;;;3.80;;